createdAt,value
2022-08-26T07:09:52.543Z,11.70
2022-08-26T07:10:50.855Z,11.00
2022-08-26T07:11:53.629Z,10.90
2022-08-26T07:12:52.491Z,12.00
2022-08-26T07:14:49.570Z,10.90
2022-08-26T07:15:49.448Z,9.50
2022-08-26T07:16:51.815Z,10.00
2022-08-26T07:17:50.551Z,9.60
2022-08-26T07:18:52.282Z,10.00
2022-08-26T07:19:49.570Z,10.40
2022-08-26T07:20:49.714Z,8.00
2022-08-26T07:21:49.884Z,9.20
2022-08-26T07:22:52.465Z,8.50
2022-08-26T07:23:50.545Z,9.90
2022-08-26T07:24:54.032Z,8.70
2022-08-26T07:25:51.438Z,8.40
2022-08-26T07:26:52.240Z,8.40
2022-08-26T07:27:53.939Z,8.90
2022-08-26T07:28:50.931Z,9.20
2022-08-26T07:30:00.650Z,8.90
2022-08-26T07:30:51.287Z,8.40
2022-08-26T07:31:56.762Z,8.00
2022-08-26T07:32:58.619Z,8.60
2022-08-26T07:34:03.856Z,8.30
2022-08-26T07:34:54.415Z,9.00
2022-08-26T07:35:51.847Z,8.50
2022-08-26T07:36:51.982Z,9.20
2022-08-26T07:37:56.806Z,8.80
2022-08-26T07:38:54.862Z,8.70
2022-08-26T07:39:54.612Z,8.30
2022-08-26T07:40:55.821Z,9.00
2022-08-26T07:41:53.090Z,9.20
2022-08-26T07:42:53.189Z,11.00
2022-08-26T07:43:54.987Z,8.00
2022-08-26T07:44:55.852Z,8.10
2022-08-26T07:45:53.317Z,6.90
2022-08-26T07:46:53.563Z,8.60
2022-08-26T07:47:54.488Z,7.40
2022-08-26T07:48:53.572Z,7.90
2022-08-26T07:49:55.401Z,8.90
2022-08-26T07:50:57.935Z,9.70
2022-08-26T07:51:54.124Z,8.80
2022-08-26T07:52:58.398Z,7.70
2022-08-26T07:53:55.116Z,8.10
2022-08-26T07:54:54.558Z,7.60
2022-08-26T07:55:55.314Z,7.30
2022-08-26T07:57:14.058Z,8.20
2022-08-26T07:57:56.791Z,7.40
2022-08-26T07:58:55.114Z,8.80
2022-08-26T07:59:55.559Z,8.70
2022-08-26T08:00:59.537Z,8.60
2022-08-26T08:01:57.276Z,9.50
2022-08-26T08:02:55.628Z,7.60
2022-08-26T08:03:56.500Z,8.30
2022-08-26T08:04:55.946Z,7.20
2022-08-26T08:05:56.256Z,7.30
2022-08-26T08:06:59.988Z,7.70
2022-08-26T08:08:26.633Z,7.80
2022-08-26T08:09:18.641Z,7.00
2022-08-26T08:10:00.258Z,8.00
2022-08-26T08:10:56.838Z,8.90
2022-08-26T08:11:58.497Z,7.60
2022-08-26T08:12:57.647Z,7.50
2022-08-26T08:13:57.814Z,8.50
2022-08-26T08:14:59.044Z,7.20
2022-08-26T08:15:58.218Z,7.90
2022-08-26T08:16:57.420Z,8.70
2022-08-26T08:18:00.677Z,7.60
2022-08-26T08:18:57.676Z,8.10
2022-08-26T08:19:58.564Z,9.20
2022-08-26T08:21:10.846Z,8.60
2022-08-26T08:21:59.027Z,8.30
2022-08-26T08:22:59.285Z,8.20
2022-08-26T08:23:59.273Z,8.00
2022-08-26T08:24:58.396Z,8.40
2022-08-26T08:25:58.518Z,8.10
2022-08-26T08:26:58.646Z,8.50
2022-08-26T08:27:59.923Z,8.10
2022-08-26T08:29:03.205Z,9.60
2022-08-26T08:29:59.098Z,7.30
2022-08-26T08:31:00.279Z,10.30
2022-08-26T08:31:59.913Z,8.80
2022-08-26T08:32:59.443Z,8.60
2022-08-26T08:34:00.725Z,9.00
2022-08-26T08:34:59.645Z,7.50
2022-08-26T08:36:00.909Z,7.80
2022-08-26T08:37:00.104Z,6.80
2022-08-26T08:38:00.993Z,8.60
2022-08-26T08:39:01.794Z,8.40
2022-08-26T08:40:00.454Z,8.50
2022-08-26T08:41:05.485Z,7.90
2022-08-26T08:42:00.741Z,7.90
2022-08-26T08:43:00.724Z,9.20
2022-08-26T08:44:02.434Z,7.90
2022-08-26T08:45:02.708Z,7.70
2022-08-26T08:46:01.208Z,9.00
2022-08-26T08:47:01.184Z,8.30
2022-08-26T08:48:02.337Z,8.00
2022-08-26T08:49:02.394Z,7.00
2022-08-26T08:50:03.813Z,7.30
2022-08-26T08:51:01.664Z,8.50
2022-08-26T08:52:04.241Z,10.40
2022-08-26T08:53:02.064Z,8.10
2022-08-26T08:54:03.182Z,7.30
2022-08-26T08:55:02.183Z,7.50
2022-08-26T08:56:02.271Z,7.60
2022-08-26T08:57:03.563Z,6.50
2022-08-26T08:58:04.851Z,8.20
2022-08-26T08:59:03.713Z,8.20
2022-08-26T09:00:04.057Z,7.50
2022-08-26T09:01:02.937Z,8.20
2022-08-26T09:02:04.238Z,7.50
2022-08-26T09:03:04.920Z,7.80
2022-08-26T09:04:03.964Z,8.50
2022-08-26T09:05:04.949Z,7.30
2022-08-26T09:06:05.353Z,7.70
2022-08-26T09:07:07.233Z,7.90
2022-08-26T09:08:03.853Z,6.80
2022-08-26T09:09:05.882Z,7.30
2022-08-26T09:10:06.083Z,7.50
2022-08-26T09:11:09.964Z,9.00
2022-08-26T09:12:07.271Z,7.40
2022-08-26T09:13:05.345Z,7.20
2022-08-26T09:14:04.492Z,7.50
2022-08-26T09:15:08.760Z,7.40
2022-08-26T09:16:05.733Z,7.10
2022-08-26T09:17:07.057Z,8.00
2022-08-26T09:18:07.278Z,8.10
2022-08-26T09:19:06.863Z,7.70
2022-08-26T09:20:06.281Z,8.40
2022-08-26T09:21:07.012Z,7.70
2022-08-26T09:22:09.516Z,8.30
2022-08-26T09:23:05.753Z,7.10
2022-08-26T09:24:05.879Z,7.70
2022-08-26T09:25:06.182Z,7.60
2022-08-26T09:26:10.288Z,7.70
2022-08-26T09:27:08.279Z,7.60
2022-08-26T09:28:06.637Z,6.70
2022-08-26T09:29:07.558Z,6.70
2022-08-26T09:30:07.223Z,7.20
2022-08-26T09:31:11.184Z,7.50
2022-08-26T09:32:07.952Z,8.10
2022-08-26T09:33:10.908Z,8.90
2022-08-26T09:34:12.583Z,9.20
2022-08-26T09:35:09.865Z,7.10
2022-08-26T09:36:10.599Z,6.80
2022-08-26T09:37:15.786Z,6.80
2022-08-26T09:38:14.892Z,7.70
2022-08-26T09:39:08.682Z,7.80
2022-08-26T09:40:07.817Z,6.90
2022-08-26T09:41:10.095Z,7.70
2022-08-26T09:42:11.267Z,7.20
2022-08-26T09:43:08.377Z,7.30
2022-08-26T09:44:08.568Z,7.90
2022-08-26T09:45:09.499Z,7.00
2022-08-26T09:46:09.563Z,6.10
2022-08-26T09:47:16.604Z,7.00
2022-08-26T09:48:12.332Z,6.50
2022-08-26T09:49:10.418Z,7.40
2022-08-26T09:50:14.320Z,8.20
2022-08-26T09:51:13.657Z,6.70
2022-08-26T09:52:09.693Z,7.10
2022-08-26T09:53:13.209Z,7.30
2022-08-26T09:54:11.501Z,7.20
2022-08-26T09:55:11.669Z,7.90
2022-08-26T09:56:11.670Z,6.70
2022-08-26T09:57:10.160Z,6.40
2022-08-26T09:58:12.011Z,6.20
2022-08-26T09:59:11.037Z,7.30
2022-08-26T10:00:10.480Z,6.40
2022-08-26T10:01:10.678Z,6.00
2022-08-26T10:12:51.475Z,6.80
2022-08-26T10:13:53.725Z,7.40
2022-08-26T10:14:51.658Z,7.50
2022-08-26T10:15:51.768Z,6.80
2022-08-26T10:16:51.953Z,6.40
2022-08-26T10:17:53.627Z,7.40
2022-08-26T10:18:54.676Z,6.70
2022-08-26T10:19:57.091Z,7.80
2022-08-26T10:20:52.461Z,7.10
2022-08-26T10:21:56.163Z,6.70
2022-08-26T10:22:52.716Z,7.00
2022-08-26T10:23:53.550Z,7.20
2022-08-26T10:24:55.592Z,6.50
2022-08-26T10:25:53.295Z,7.00
2022-08-26T10:26:53.430Z,6.60
2022-08-26T10:27:55.155Z,6.30
2022-08-26T10:28:54.319Z,7.00
2022-08-26T10:30:02.996Z,7.30
2022-08-26T10:30:54.639Z,6.50
2022-08-26T10:31:54.861Z,6.40
2022-08-26T10:32:56.798Z,6.50
2022-08-26T10:33:58.794Z,7.00
2022-08-26T10:34:55.042Z,7.70
2022-08-26T10:35:57.064Z,6.60
2022-08-26T10:37:14.292Z,6.80
2022-08-26T10:37:55.684Z,6.60
2022-08-26T10:38:55.813Z,7.60
2022-08-26T10:39:58.698Z,6.30
2022-08-26T10:40:56.094Z,8.20
2022-08-26T10:41:57.864Z,7.40
2022-08-26T10:42:56.632Z,6.90
2022-08-26T10:43:56.921Z,5.90
2022-08-26T10:44:58.640Z,7.20
2022-08-26T10:45:55.772Z,8.70
2022-08-26T10:46:57.223Z,6.50
2022-08-26T10:47:55.971Z,6.80
2022-08-26T10:48:59.906Z,6.80
2022-08-26T10:50:00.469Z,7.90
2022-08-26T10:50:57.473Z,7.70
2022-08-26T10:51:56.508Z,7.40
2022-08-26T10:52:56.659Z,6.60
2022-08-26T10:53:58.382Z,8.40
2022-08-26T10:54:56.792Z,7.20
2022-08-26T10:55:58.577Z,6.50
2022-08-26T10:56:58.039Z,7.60
2022-08-26T10:57:57.948Z,7.50
2022-08-26T10:58:59.024Z,7.20
2022-08-26T10:59:57.533Z,6.50
2022-08-26T11:00:57.619Z,7.90
2022-08-26T11:01:59.444Z,7.30
2022-08-26T11:02:58.731Z,8.40
2022-08-26T11:04:01.262Z,8.10
2022-08-26T11:05:02.421Z,6.90
2022-08-26T11:05:59.235Z,7.80
2022-08-26T11:06:59.345Z,7.30
2022-08-26T11:07:59.314Z,8.10
2022-08-26T11:09:01.591Z,8.10
2022-08-26T11:10:01.231Z,8.00
2022-08-26T11:10:59.223Z,7.80
2022-08-26T11:11:59.003Z,7.80
2022-08-26T11:13:00.998Z,7.50
2022-08-26T11:13:59.242Z,6.60
2022-08-26T11:15:00.216Z,7.10
2022-08-26T11:16:02.421Z,7.90
2022-08-26T11:17:07.033Z,7.80
2022-08-26T11:18:10.785Z,7.60
2022-08-26T11:18:59.903Z,7.00
2022-08-26T11:20:07.401Z,8.70
2022-08-26T11:21:01.075Z,7.80
2022-08-26T11:22:01.016Z,6.90
2022-08-26T11:23:01.210Z,7.70
2022-08-26T11:24:01.330Z,7.50
2022-08-26T11:25:06.500Z,6.60
2022-08-26T11:26:00.875Z,7.90
2022-08-26T11:27:01.851Z,7.50
2022-08-26T11:28:01.989Z,8.10
2022-08-26T11:29:01.110Z,6.80
2022-08-26T11:30:02.932Z,7.40
2022-08-26T11:31:01.372Z,7.40
2022-08-26T11:32:01.614Z,7.60
2022-08-26T11:33:01.602Z,8.20
2022-08-26T11:34:03.341Z,7.10
2022-08-26T11:35:01.826Z,7.40
2022-08-26T11:36:12.038Z,8.00
2022-08-26T11:37:03.142Z,8.20
2022-08-26T11:38:04.317Z,6.70
2022-08-26T11:39:05.440Z,7.00
2022-08-26T11:40:03.054Z,7.20
2022-08-26T11:41:04.019Z,6.90
2022-08-26T11:42:02.714Z,8.60
2022-08-26T11:43:04.431Z,9.80
2022-08-26T11:44:06.109Z,7.30
2022-08-26T11:45:05.698Z,7.50
2022-08-26T11:46:04.163Z,7.90
2022-08-26T11:47:04.240Z,7.30
2022-08-26T11:48:06.592Z,7.10
2022-08-26T11:49:04.559Z,7.70
2022-08-26T11:50:06.759Z,7.10
2022-08-26T11:51:04.622Z,7.40
2022-08-26T11:52:04.781Z,7.40
2022-08-26T11:53:06.409Z,7.80
2022-08-26T11:54:04.260Z,8.40
2022-08-26T11:55:05.982Z,7.30
2022-08-26T11:56:04.559Z,7.70
2022-08-26T11:57:07.950Z,8.10
2022-08-26T11:58:06.940Z,7.40
2022-08-26T11:59:04.939Z,7.50
2022-08-26T12:00:08.409Z,7.80
2022-08-26T12:01:09.777Z,7.40
2022-08-26T12:02:05.292Z,7.50
2022-08-26T12:03:05.643Z,7.00
2022-08-26T12:04:05.697Z,8.20
2022-08-26T12:05:07.307Z,7.30
2022-08-26T12:06:05.882Z,7.20
2022-08-26T12:07:09.051Z,7.90
2022-08-26T12:08:08.121Z,8.00
2022-08-26T12:09:06.320Z,7.40
2022-08-26T12:10:09.467Z,7.10
2022-08-26T12:11:07.318Z,7.70
2022-08-26T12:12:09.916Z,7.30
2022-08-26T12:13:08.489Z,7.60
2022-08-26T12:14:08.728Z,7.60
2022-08-26T12:15:08.969Z,7.60
2022-08-26T12:16:07.205Z,8.30
2022-08-26T12:17:07.291Z,7.40
2022-08-26T12:18:07.581Z,7.80
2022-08-26T12:19:07.611Z,7.10
2022-08-26T12:20:09.308Z,7.70
2022-08-26T12:21:07.805Z,7.50
2022-08-26T12:22:09.546Z,7.00
2022-08-26T12:23:08.072Z,7.80
2022-08-26T12:24:08.161Z,8.20
2022-08-26T12:25:08.288Z,7.90
2022-08-26T12:26:10.451Z,8.30
2022-08-26T12:27:08.618Z,7.50
2022-08-26T12:28:08.888Z,7.80
2022-08-26T12:29:19.662Z,7.50
2022-08-26T12:30:12.496Z,7.40
2022-08-26T12:31:10.723Z,7.20
2022-08-26T12:32:09.238Z,7.90
2022-08-26T12:33:22.205Z,8.10
2022-08-26T12:34:18.188Z,8.30
2022-08-26T12:35:11.409Z,7.50
2022-08-26T12:36:12.900Z,8.90
2022-08-26T12:37:10.080Z,7.50
2022-08-26T12:38:10.241Z,8.00
2022-08-26T12:39:11.828Z,8.00
2022-08-26T12:40:10.419Z,7.10
2022-08-26T12:41:12.038Z,7.00
2022-08-26T12:42:10.542Z,8.40
2022-08-26T12:43:10.689Z,8.20
2022-08-26T12:44:10.856Z,7.20
2022-08-26T12:45:10.986Z,7.20
2022-08-26T12:46:12.528Z,7.90
2022-08-26T12:47:11.276Z,7.20
2022-08-26T12:48:11.387Z,8.10
2022-08-26T12:49:12.608Z,7.00
2022-08-26T12:50:11.637Z,7.70
2022-08-26T12:51:13.390Z,7.10
2022-08-26T12:52:13.615Z,7.30
2022-08-26T12:53:11.977Z,7.80
2022-08-26T12:54:12.142Z,7.30
2022-08-26T12:55:12.288Z,7.30
2022-08-26T12:56:14.026Z,7.30
2022-08-26T12:57:14.261Z,7.40
2022-08-26T12:58:12.626Z,7.50
2022-08-26T12:59:14.644Z,7.90
2022-08-26T13:00:12.848Z,8.20
2022-08-26T13:01:13.088Z,7.60
2022-08-26T13:02:14.812Z,8.70
2022-08-26T13:03:13.227Z,8.20
2022-08-26T13:04:14.946Z,6.90
2022-08-26T13:05:13.556Z,7.20
2022-08-26T13:06:16.095Z,8.60
2022-08-26T13:07:15.388Z,7.50
2022-08-26T13:08:13.919Z,7.50
2022-08-26T13:09:15.639Z,7.20
2022-08-26T13:10:14.177Z,7.90
2022-08-26T13:11:14.315Z,7.80
2022-08-26T13:12:14.485Z,7.20
2022-08-26T13:13:15.576Z,7.40
2022-08-26T13:14:21.205Z,7.80
2022-08-26T13:15:17.536Z,7.70
2022-08-26T13:16:15.830Z,7.50
2022-08-26T13:17:15.156Z,7.80
2022-08-26T13:18:16.896Z,8.00
2022-08-26T13:19:15.419Z,8.40
2022-08-26T13:20:17.145Z,9.70
2022-08-26T13:21:15.623Z,9.10
2022-08-26T13:22:17.365Z,8.00
2022-08-26T13:23:16.080Z,7.80
2022-08-26T13:24:16.079Z,7.20
2022-08-26T13:25:19.673Z,7.10
2022-08-26T13:26:16.346Z,7.40
2022-08-26T13:27:16.498Z,8.20
2022-08-26T13:28:16.651Z,8.80
2022-08-26T13:29:17.486Z,8.10
2022-08-26T13:30:18.681Z,7.60
2022-08-26T13:31:17.062Z,7.50
2022-08-26T13:32:17.187Z,6.80
2022-08-26T13:33:17.285Z,8.40
2022-08-26T13:34:17.405Z,9.20
2022-08-26T13:35:19.136Z,7.10
2022-08-26T13:36:19.386Z,8.00
2022-08-26T13:37:17.795Z,8.10
2022-08-26T13:38:30.899Z,7.10
2022-08-26T13:39:19.080Z,7.60
2022-08-26T13:40:19.878Z,7.70
2022-08-26T13:41:18.344Z,6.90
2022-08-26T13:42:19.524Z,7.10
2022-08-26T13:43:20.235Z,8.40
2022-08-26T13:44:18.754Z,7.80
2022-08-26T13:45:18.895Z,8.70
2022-08-26T13:46:20.743Z,8.10
2022-08-26T13:47:19.134Z,7.20
2022-08-26T13:48:21.550Z,7.90
2022-08-26T13:49:19.408Z,9.00
2022-08-26T13:50:19.539Z,7.30
2022-08-26T13:51:21.279Z,8.50
2022-08-26T13:52:25.492Z,7.70
2022-08-26T13:53:20.945Z,8.60
2022-08-26T13:54:20.079Z,7.60
2022-08-26T13:55:20.214Z,7.70
2022-08-26T13:56:22.026Z,8.00
2022-08-26T13:57:20.492Z,8.40
2022-08-26T13:58:20.609Z,8.80
2022-08-26T13:59:20.754Z,8.50
2022-08-26T14:00:22.520Z,9.20
2022-08-26T14:01:21.987Z,7.10
2022-08-26T14:02:21.172Z,7.60
2022-08-26T14:03:23.007Z,8.10
2022-08-26T14:04:27.171Z,8.00
2022-08-26T14:05:24.134Z,8.10
2022-08-26T14:06:21.688Z,8.90
2022-08-26T14:07:21.837Z,7.40
2022-08-26T14:08:21.999Z,8.50
2022-08-26T14:09:23.797Z,8.00
2022-08-26T14:10:22.266Z,9.00
2022-08-26T14:11:22.415Z,8.40
2022-08-26T14:12:22.574Z,7.80
2022-08-26T14:13:22.692Z,7.80
2022-08-26T14:14:24.421Z,7.90
2022-08-26T14:15:22.947Z,7.60
2022-08-26T14:16:24.736Z,8.30
2022-08-26T14:17:23.206Z,8.40
2022-08-26T14:18:24.952Z,9.10
2022-08-26T14:19:25.176Z,8.10
2022-08-26T14:20:24.390Z,8.60
2022-08-26T14:21:25.370Z,7.50
2022-08-26T14:22:24.702Z,7.40
2022-08-26T14:23:25.048Z,9.50
2022-08-26T14:24:24.143Z,8.00
2022-08-26T14:25:25.863Z,7.30
2022-08-26T14:26:28.519Z,9.00
2022-08-26T14:27:25.544Z,8.80
2022-08-26T14:29:26.374Z,9.10
2022-08-26T14:30:24.907Z,7.60
2022-08-26T14:31:25.160Z,8.30
2022-08-26T14:32:25.160Z,8.70
2022-08-26T14:33:26.924Z,7.70
2022-08-26T14:34:25.415Z,7.70
2022-08-26T14:35:25.543Z,8.00
2022-08-26T14:36:25.711Z,9.10
2022-08-26T14:37:25.852Z,7.90
2022-08-26T14:38:27.582Z,7.40
2022-08-26T14:39:26.073Z,8.10
2022-08-26T14:40:26.340Z,8.10
2022-08-26T14:41:26.313Z,8.50
2022-08-26T14:42:26.470Z,8.20
2022-08-26T14:43:29.224Z,8.60
2022-08-26T14:44:28.469Z,8.50
2022-08-26T14:45:28.725Z,8.40
2022-08-26T14:46:27.090Z,7.00
2022-08-26T14:47:28.822Z,7.40
2022-08-26T14:48:29.045Z,7.40
2022-08-26T14:49:27.451Z,7.30
2022-08-26T14:50:29.143Z,8.10
2022-08-26T14:51:27.638Z,7.90
2022-08-26T14:52:27.754Z,9.20
2022-08-26T14:53:27.850Z,9.60
2022-08-26T14:54:29.642Z,7.70
2022-08-26T14:55:28.113Z,8.40
2022-08-26T14:56:28.274Z,8.70
2022-08-26T14:57:30.018Z,8.80
2022-08-26T14:58:30.956Z,8.00
2022-08-26T14:59:29.651Z,8.10
2022-08-26T15:00:28.741Z,8.80
2022-08-26T15:01:31.990Z,7.90
2022-08-26T15:02:33.281Z,8.00
2022-08-26T15:03:30.991Z,8.40
2022-08-26T15:04:29.299Z,8.50
2022-08-26T15:05:32.474Z,8.20
2022-08-26T15:06:29.542Z,8.00
2022-08-26T15:07:32.751Z,9.60
2022-08-26T15:08:29.802Z,8.30
2022-08-26T15:09:31.567Z,9.80
2022-08-26T15:10:30.829Z,8.90
2022-08-26T15:11:30.233Z,8.90
2022-08-26T15:12:31.982Z,7.20
2022-08-26T15:13:30.513Z,7.60
2022-08-26T15:14:32.991Z,8.40
2022-08-26T15:15:31.732Z,7.80
2022-08-26T15:16:30.943Z,8.20
2022-08-26T15:17:32.642Z,9.00
2022-08-26T15:18:32.186Z,9.40
2022-08-26T15:19:31.304Z,9.00
2022-08-26T15:21:31.595Z,8.50
2022-08-26T15:22:33.304Z,9.40
2022-08-26T15:23:31.814Z,9.10
2022-08-26T15:24:32.915Z,9.10
2022-08-26T15:25:33.641Z,9.30
2022-08-26T15:26:32.194Z,10.30
2022-08-26T15:27:32.313Z,8.60
2022-08-26T15:28:32.446Z,8.70
2022-08-26T15:29:36.296Z,8.90
2022-08-26T15:30:34.261Z,8.30
2022-08-26T15:31:34.582Z,9.50
2022-08-26T15:32:32.901Z,7.80
2022-08-26T15:33:33.078Z,8.20
2022-08-26T15:34:33.162Z,8.70
2022-08-26T15:35:35.641Z,9.50
2022-08-26T15:36:33.413Z,8.00
2022-08-26T15:37:33.558Z,9.30
2022-08-26T15:38:35.291Z,9.00
2022-08-26T15:39:35.551Z,8.60
2022-08-26T15:40:34.055Z,9.70
2022-08-26T15:41:35.000Z,9.40
2022-08-26T15:42:34.181Z,8.00
2022-08-26T15:43:35.920Z,7.80
2022-08-26T15:44:34.439Z,8.50
2022-08-26T15:45:34.594Z,8.50
2022-08-26T15:46:37.436Z,8.20
2022-08-26T15:47:48.394Z,8.50
2022-08-26T15:48:37.639Z,9.80
2022-08-26T15:49:35.130Z,6.70
2022-08-26T15:50:36.881Z,9.10
2022-08-26T15:51:45.779Z,9.10
2022-08-26T15:52:36.529Z,9.40
2022-08-26T15:53:37.262Z,9.10
2022-08-26T15:54:36.773Z,8.90
2022-08-26T15:55:35.905Z,8.10
2022-08-26T15:56:37.623Z,8.00
2022-08-26T15:57:36.205Z,9.00
2022-08-26T15:58:36.349Z,8.60
2022-08-26T15:59:36.502Z,8.40
2022-08-26T16:00:36.646Z,9.30
2022-08-26T16:12:10.407Z,7.80
2022-08-26T16:13:12.961Z,9.10
2022-08-26T16:14:11.751Z,10.60
2022-08-26T16:15:12.458Z,9.40
2022-08-26T16:16:12.773Z,8.00
2022-08-26T16:17:11.067Z,6.70
2022-08-26T16:18:11.108Z,8.10
2022-08-26T16:19:12.818Z,8.00
2022-08-26T16:20:11.410Z,7.60
2022-08-26T16:21:13.149Z,7.50
2022-08-26T16:22:11.697Z,7.90
2022-08-26T16:23:11.787Z,7.20
2022-08-26T16:24:13.033Z,7.40
2022-08-26T16:25:13.745Z,8.30
2022-08-26T16:26:12.207Z,8.90
2022-08-26T16:27:13.932Z,8.00
2022-08-26T16:28:12.498Z,7.20
2022-08-26T16:29:12.650Z,7.00
2022-08-26T16:30:14.378Z,9.00
2022-08-26T16:31:12.986Z,7.90
2022-08-26T16:32:13.058Z,8.50
2022-08-26T16:33:13.208Z,8.60
2022-08-26T16:34:14.358Z,7.50
2022-08-26T16:35:15.107Z,6.30
2022-08-26T16:36:15.344Z,7.30
2022-08-26T16:37:15.567Z,8.60
2022-08-26T16:38:15.806Z,8.10
2022-08-26T16:39:14.027Z,6.70
2022-08-26T16:40:14.167Z,7.40
2022-08-26T16:41:15.837Z,7.60
2022-08-26T16:42:16.076Z,8.00
2022-08-26T16:43:15.317Z,8.70
2022-08-26T16:44:14.701Z,7.60
2022-08-26T16:45:14.864Z,6.60
2022-08-26T16:46:16.630Z,7.20
2022-08-26T16:47:16.840Z,8.20
2022-08-26T16:48:17.077Z,7.90
2022-08-26T16:49:15.377Z,8.80
2022-08-26T16:50:15.526Z,8.60
2022-08-26T16:51:15.687Z,7.50
2022-08-26T16:52:15.807Z,9.00
2022-08-26T16:53:16.558Z,8.80
2022-08-26T16:54:16.017Z,7.10
2022-08-26T16:55:16.132Z,7.40
2022-08-26T16:56:16.890Z,7.30
2022-08-26T16:57:16.376Z,8.10
2022-08-26T16:58:17.134Z,7.50
2022-08-26T16:59:16.653Z,7.50
2022-08-26T17:00:16.795Z,8.40
2022-08-26T17:01:17.938Z,7.30
2022-08-26T17:02:18.674Z,8.60
2022-08-26T17:03:18.885Z,7.00
2022-08-26T17:04:18.095Z,7.70
2022-08-26T17:05:18.255Z,7.20
2022-08-26T17:06:18.429Z,7.60
2022-08-26T17:07:18.575Z,6.60
2022-08-26T17:08:28.416Z,7.20
2022-08-26T17:09:19.056Z,8.10
2022-08-26T17:10:18.174Z,8.50
2022-08-26T17:11:18.275Z,7.20
2022-08-26T17:12:20.033Z,6.60
2022-08-26T17:13:29.678Z,8.10
2022-08-26T17:14:19.709Z,7.50
2022-08-26T17:15:18.826Z,6.80
2022-08-26T17:16:21.281Z,7.40
2022-08-26T17:17:19.105Z,7.00
2022-08-26T17:18:20.846Z,6.00
2022-08-26T17:19:19.374Z,7.50
2022-08-26T17:20:19.521Z,7.80
2022-08-26T17:21:20.244Z,7.00
2022-08-26T17:22:19.806Z,7.50
2022-08-26T17:23:19.926Z,6.80
2022-08-26T17:24:20.032Z,6.80
2022-08-26T17:25:20.194Z,7.70
2022-08-26T17:26:21.932Z,6.40
2022-08-26T17:27:20.462Z,6.50
2022-08-26T17:28:20.595Z,6.60
2022-08-26T17:29:20.755Z,6.90
2022-08-26T17:30:20.893Z,6.90
2022-08-26T17:31:22.650Z,7.00
2022-08-26T17:32:21.146Z,6.80
2022-08-26T17:33:24.671Z,7.40
2022-08-26T17:34:21.399Z,7.10
2022-08-26T17:35:21.539Z,6.50
2022-08-26T17:36:21.674Z,7.00
2022-08-26T17:37:23.387Z,6.20
2022-08-26T17:38:21.901Z,7.00
2022-08-26T17:39:23.634Z,6.30
2022-08-26T17:40:22.373Z,6.80
2022-08-26T17:41:23.976Z,6.80
2022-08-26T17:42:22.439Z,6.20
2022-08-26T17:43:23.580Z,6.50
2022-08-26T17:44:22.703Z,7.20
2022-08-26T17:45:22.850Z,6.00
2022-08-26T17:46:24.690Z,7.40
2022-08-26T17:47:23.107Z,7.20
2022-08-26T17:48:23.254Z,7.30
2022-08-26T17:49:23.404Z,6.90
2022-08-26T17:50:23.560Z,6.60
2022-08-26T17:51:25.284Z,7.10
2022-08-26T17:52:23.812Z,6.60
2022-08-26T17:53:23.956Z,5.60
2022-08-26T17:54:24.130Z,5.90
2022-08-26T17:55:24.245Z,6.20
2022-08-26T17:56:24.405Z,6.90
2022-08-26T17:57:26.120Z,8.00
2022-08-26T17:58:24.672Z,7.10
2022-08-26T17:59:30.428Z,6.50
2022-08-26T18:00:24.963Z,6.50
2022-08-26T18:01:25.131Z,6.50
2022-08-26T18:02:25.267Z,6.00
2022-08-26T18:03:26.959Z,7.30
2022-08-26T18:04:25.543Z,6.40
2022-08-26T18:05:25.606Z,6.10
2022-08-26T18:06:25.737Z,6.10
2022-08-26T18:07:28.434Z,6.70
2022-08-26T18:08:26.815Z,5.30
2022-08-26T18:09:26.962Z,6.60
2022-08-26T18:10:27.123Z,6.00
2022-08-26T18:11:27.272Z,6.00
2022-08-26T18:12:29.624Z,6.30
2022-08-26T18:13:27.610Z,6.50
2022-08-26T18:14:29.834Z,6.60
2022-08-26T18:15:28.631Z,5.10
2022-08-26T18:16:26.991Z,6.60
2022-08-26T18:17:27.131Z,5.90
2022-08-26T18:18:27.270Z,6.10
2022-08-26T18:19:27.425Z,5.70
2022-08-26T18:20:29.151Z,5.10
2022-08-26T18:21:27.742Z,6.20
2022-08-26T18:22:27.864Z,6.10
2022-08-26T18:23:29.582Z,6.40
2022-08-26T18:24:28.105Z,5.40
2022-08-26T18:25:29.823Z,6.00
2022-08-26T18:26:28.399Z,6.20
2022-08-26T18:27:30.161Z,5.20
2022-08-26T18:28:28.661Z,5.20
2022-08-26T18:29:28.779Z,5.50
2022-08-26T18:30:28.905Z,5.60
2022-08-26T18:31:29.137Z,5.60
2022-08-26T18:32:30.253Z,6.70
2022-08-26T18:33:30.488Z,5.70
2022-08-26T18:34:31.741Z,5.80
2022-08-26T18:35:29.574Z,5.70
2022-08-26T18:36:29.701Z,5.80
2022-08-26T18:37:31.555Z,5.60
2022-08-26T18:38:29.960Z,4.60
2022-08-26T18:39:31.691Z,6.20
2022-08-26T18:40:30.255Z,6.10
2022-08-26T18:41:30.320Z,5.20
2022-08-26T18:42:30.461Z,4.90
2022-08-26T18:43:30.669Z,5.90
2022-08-26T18:44:30.762Z,6.40
2022-08-26T18:45:32.509Z,5.70
2022-08-26T18:46:32.816Z,4.00
2022-08-26T18:47:31.181Z,4.60
2022-08-26T18:48:31.378Z,5.40
2022-08-26T18:49:33.089Z,5.50
2022-08-26T18:50:33.304Z,4.10
2022-08-26T18:51:31.798Z,4.30
2022-08-26T18:52:31.925Z,4.40
2022-08-26T18:53:33.139Z,5.00
2022-08-26T18:54:32.154Z,6.00
2022-08-26T18:55:35.330Z,4.80
2022-08-26T18:56:32.370Z,5.80
2022-08-26T18:57:32.480Z,4.60
2022-08-26T18:58:32.599Z,4.60
2022-08-26T18:59:32.719Z,4.60
2022-08-26T19:00:35.905Z,4.50
2022-08-26T19:01:33.102Z,3.70
2022-08-26T19:02:33.251Z,4.10
2022-08-26T19:03:33.221Z,5.30
2022-08-26T19:04:36.398Z,4.60
2022-08-26T19:05:34.380Z,5.20
2022-08-26T19:06:34.541Z,4.90
2022-08-26T19:07:39.390Z,4.60
2022-08-26T19:08:36.518Z,3.90
2022-08-26T19:09:35.990Z,3.80
2022-08-26T19:10:34.920Z,5.20
2022-08-26T19:11:41.718Z,3.30
2022-08-26T19:12:36.271Z,3.80
2022-08-26T19:13:36.249Z,4.60
2022-08-26T19:14:34.789Z,4.60
2022-08-26T19:15:36.539Z,4.50
2022-08-26T19:16:35.079Z,4.10
2022-08-26T19:17:35.217Z,4.10
2022-08-26T19:18:35.319Z,3.90
2022-08-26T19:19:35.532Z,4.70
2022-08-26T19:20:37.261Z,3.60
2022-08-26T19:21:35.774Z,5.00
2022-08-26T19:22:35.891Z,3.40
2022-08-26T19:23:36.188Z,2.90
2022-08-26T19:24:37.773Z,3.90
2022-08-26T19:25:37.279Z,3.40
2022-08-26T19:26:36.378Z,4.30
2022-08-26T19:27:36.554Z,4.10
2022-08-26T19:28:36.671Z,3.30
2022-08-26T19:29:38.447Z,3.20
2022-08-26T19:30:36.980Z,3.30
2022-08-26T19:31:38.108Z,3.60
2022-08-26T19:32:37.250Z,3.40
2022-08-26T19:33:37.371Z,3.60
2022-08-26T19:34:39.087Z,3.50
2022-08-26T19:35:39.334Z,2.60
2022-08-26T19:36:37.751Z,3.40
2022-08-26T19:37:37.908Z,3.40
2022-08-26T19:38:38.027Z,2.90
2022-08-26T19:39:38.153Z,3.30
2022-08-26T19:40:39.878Z,2.80
2022-08-26T19:41:38.410Z,3.00
2022-08-26T19:42:38.565Z,3.60
2022-08-26T19:43:39.677Z,2.80
2022-08-26T19:44:38.900Z,2.80
2022-08-26T19:45:40.689Z,3.20
2022-08-26T19:46:40.376Z,2.30
2022-08-26T19:47:39.301Z,2.10
2022-08-26T19:48:40.036Z,2.50
2022-08-26T19:49:39.586Z,3.10
2022-08-26T19:50:41.309Z,3.50
2022-08-26T19:51:39.869Z,3.10
2022-08-26T19:52:39.986Z,3.60
2022-08-26T19:53:40.108Z,2.20
2022-08-26T19:54:40.275Z,2.40
2022-08-26T19:55:43.447Z,2.60
2022-08-26T19:56:40.570Z,3.40
2022-08-26T19:57:40.684Z,2.60
2022-08-26T19:58:40.796Z,3.10
2022-08-26T19:59:42.536Z,2.80
2022-08-26T20:00:41.027Z,2.90
2022-08-26T20:01:42.748Z,2.90
2022-08-26T20:02:41.308Z,2.10
2022-08-26T20:03:41.534Z,2.80
2022-08-26T20:04:41.583Z,2.90
2022-08-26T20:05:41.688Z,3.30
2022-08-26T20:06:43.406Z,3.10
2022-08-26T20:07:41.947Z,3.90
2022-08-26T20:08:42.105Z,3.70
2022-08-26T20:09:45.797Z,2.30
2022-08-26T20:10:42.385Z,3.10
2022-08-26T20:11:42.536Z,2.80
2022-08-26T20:12:42.648Z,2.70
2022-08-26T20:13:43.706Z,2.70
2022-08-26T20:14:45.951Z,3.30
2022-08-26T20:15:46.163Z,3.20
2022-08-26T20:16:43.324Z,3.20
2022-08-26T20:17:43.294Z,2.20
2022-08-26T20:18:43.405Z,2.50
2022-08-26T20:19:45.183Z,3.40
2022-08-26T20:20:45.376Z,3.60
2022-08-26T20:21:43.765Z,2.80
2022-08-26T20:22:43.905Z,2.20
2022-08-26T20:23:44.056Z,2.40
2022-08-26T20:24:44.197Z,2.90
2022-08-26T20:25:45.934Z,3.50
2022-08-26T20:26:44.426Z,2.60
2022-08-26T20:27:44.554Z,3.10
2022-08-26T20:28:44.694Z,3.00
2022-08-26T20:29:44.805Z,1.90
2022-08-26T20:30:46.551Z,3.00
2022-08-26T20:31:46.843Z,3.70
2022-08-26T20:32:45.615Z,3.20
2022-08-26T20:33:46.097Z,3.00
2022-08-26T20:34:45.522Z,2.80
2022-08-26T20:35:45.694Z,3.50
2022-08-26T20:36:47.414Z,2.40
2022-08-26T20:37:45.973Z,3.30
2022-08-26T20:38:46.134Z,3.30
2022-08-26T20:39:46.244Z,2.50
2022-08-26T20:40:46.364Z,3.10
2022-08-26T20:41:48.124Z,2.60
2022-08-26T20:42:46.614Z,2.90
2022-08-26T20:43:46.733Z,2.80
2022-08-26T20:44:54.597Z,2.70
2022-08-26T20:45:48.050Z,2.60
2022-08-26T20:46:47.193Z,2.80
2022-08-26T20:47:48.142Z,3.00
2022-08-26T20:48:47.453Z,2.80
2022-08-26T20:49:49.186Z,3.00
2022-08-26T20:50:48.638Z,2.80
2022-08-26T20:51:49.402Z,3.50
2022-08-26T20:52:48.694Z,3.40
2022-08-26T20:53:48.057Z,3.00